EGGDEGSS

Guest
Details From EGGD - Bristol Lulsgate
To EGSS - London Stansted
Flight Number -
Tags Routegen
Created
Modified
Stats Distance 114 nm / 211 km
Max Altitude 0 ft / 0 m
Waypoints 2
Social Downloads 0
Likes 0
Share VATSIM

Download

Looking for another format? Having issues loading an existing format? Contact us
Advertisement - Login to hide

Notes

None

Route

EGGD EGSS

ID Type Via Altitude (ft/m) Position (lat/lon) Dist (leg/tot) Name
O EGGD APT - 0 / 0 51.38211 / -2.73350 - / 0 nm
O EGSS APT - 0 / 0 51.87508 / 0.21993 114 / 114 nm

Altitude Profile

Advertisement - Login to hide

EGGD

Details ICAO EGGD (BRS)
Name Bristol
Region United Kingdom
Timezone Europe/London (UTC+1.0)
Stats Elevation 622 ft / 190 m (AMSL)
Location 51.382700° -2.719110°
Runways 1
Magnetic Variation 1.087° W

METAR

EGGD 151820Z AUTO 27011KT 9999 NCD 16/14 Q1024

Decode

TAF

TAF EGGD 151659Z 1518/1618 27010KT 9999 SCT010 PROB40 TEMPO 1518/1520 BKN010 BECMG 1520/1523 BKN008 TEMPO 1523/1609 6000 -DZ BKN003 PROB30 TEMPO 1604/1609 3000 BR BKN001 BECMG 1609/1612 7000 BKN003 PROB40 TEMPO 1609/1614 0300 -RADZ FG BKN001 TEMPO 1615/1618 9999 BKN008

Decode

Departure Runways

ID Width Length Bearing (true/mag) Surface Threshold Overrun Markings Lighting
09 148 ft / 45 m 6,585 ft / 2,007 m 86.42° / 87.51° ASPHALT 0 ft / 0 m 0 ft / 0 m PREC-APP CENTERLINE EDGE THRESHOLD CALVERT TDZ REIL-OMNI
27 148 ft / 45 m 6,585 ft / 2,007 m 266.44° / 267.53° ASPHALT 413 ft / 126 m 0 ft / 0 m PREC-APP CENTERLINE EDGE THRESHOLD ODALS TDZ REIL-OMNI

EGSS

Details ICAO EGSS (STN)
Name London Stansted
Region United Kingdom
Timezone Europe/London (UTC+1.0)
Stats Elevation 348 ft / 106 m (AMSL)
Location 51.885100° 0.234986°
Runways 1
Magnetic Variation 0.104° W

METAR

EGSS 151820Z AUTO 36004KT 9999 BKN043 21/14 Q1022

Decode

TAF

TAF EGSS 151659Z 1518/1624 27007KT 9999 SCT025 PROB30 TEMPO 1602/1605 9000 BKN009 BECMG 1605/1608 BKN007 TEMPO 1606/1621 4000 -RADZ BR BKN003 BECMG 1621/1624 SCT010

Decode

Destination Runways

ID Width Length Bearing (true/mag) Surface Threshold Overrun Markings Lighting
04 151 ft / 46 m 9,985 ft / 3,044 m 42.78° / 42.89° ASPHALT 974 ft / 297 m 0 ft / 0 m UK-PREC-APP CENTERLINE EDGE THRESHOLD CALVERT-ILS TDZ REIL-OMNI
22 151 ft / 46 m 9,985 ft / 3,044 m 222.81° / 222.91° ASPHALT 0 ft / 0 m 0 ft / 0 m UK-PREC-APP CENTERLINE EDGE THRESHOLD CALVERT-ILS TDZ REIL-OMNI

Approach Navaids

Runway Type Ident Frequency Range Bearing (true/mag) Slope Elevation
04 LOC-ILS ISED 110.50 MHz 18 nm / 33 km 42.80° / 42.90 ° - 348 ft / 106 m (AMSL)
04 GS ISED 110.50 MHz 10 nm / 19 km 42.80° / 42.90 ° 3.00° 348 ft / 106 m (AMSL)
04 DME ISED 110.50 MHz 18 nm / 33 km - - 348 ft / 106 m (AMSL)
22 DME ISX 110.50 MHz 18 nm / 33 km - - 348 ft / 106 m (AMSL)
22 GS ISX 110.50 MHz 10 nm / 19 km 222.80° / 222.90 ° 3.00° 348 ft / 106 m (AMSL)
22 LOC-ILS ISX 110.50 MHz 18 nm / 33 km 222.80° / 222.90 ° - 348 ft / 106 m (AMSL)

Popular Alternatives